sensor_id;sensor_type;location;lat;lon;timestamp;P1;durP1;ratioP1;P2;durP2;ratioP2
19364;SDS011;9818;48.382;10.850;2023-04-08T00:00:34;3.13;;;2.67;;
19364;SDS011;9818;48.382;10.850;2023-04-08T00:03:03;3.37;;;3.00;;
19364;SDS011;9818;48.382;10.850;2023-04-08T00:05:32;3.00;;;2.70;;
19364;SDS011;9818;48.382;10.850;2023-04-08T00:08:01;3.50;;;2.80;;
19364;SDS011;9818;48.382;10.850;2023-04-08T00:10:32;3.17;;;2.87;;
19364;SDS011;9818;48.382;10.850;2023-04-08T00:13:01;3.33;;;2.90;;
19364;SDS011;9818;48.382;10.850;2023-04-08T00:15:29;2.90;;;2.70;;
19364;SDS011;9818;48.382;10.850;2023-04-08T00:17:58;3.67;;;2.40;;
19364;SDS011;9818;48.382;10.850;2023-04-08T00:20:27;4.23;;;2.87;;
19364;SDS011;9818;48.382;10.850;2023-04-08T00:22:55;3.33;;;3.03;;
19364;SDS011;9818;48.382;10.850;2023-04-08T00:25:24;3.13;;;2.70;;
19364;SDS011;9818;48.382;10.850;2023-04-08T00:27:55;2.90;;;2.60;;
19364;SDS011;9818;48.382;10.850;2023-04-08T00:30:24;3.37;;;2.73;;
19364;SDS011;9818;48.382;10.850;2023-04-08T00:32:54;2.83;;;2.60;;
19364;SDS011;9818;48.382;10.850;2023-04-08T00:35:22;3.03;;;2.77;;
19364;SDS011;9818;48.382;10.850;2023-04-08T00:37:51;3.47;;;2.80;;
19364;SDS011;9818;48.382;10.850;2023-04-08T00:40:20;3.13;;;2.90;;
19364;SDS011;9818;48.382;10.850;2023-04-08T00:42:48;3.27;;;2.97;;
19364;SDS011;9818;48.382;10.850;2023-04-08T00:45:20;3.07;;;2.67;;
19364;SDS011;9818;48.382;10.850;2023-04-08T00:47:48;3.07;;;2.87;;
19364;SDS011;9818;48.382;10.850;2023-04-08T00:50:17;4.03;;;2.90;;
19364;SDS011;9818;48.382;10.850;2023-04-08T00:52:46;3.13;;;2.83;;
19364;SDS011;9818;48.382;10.850;2023-04-08T00:55:15;3.57;;;3.00;;
19364;SDS011;9818;48.382;10.850;2023-04-08T00:57:43;3.30;;;2.90;;
19364;SDS011;9818;48.382;10.850;2023-04-08T01:00:13;3.10;;;2.90;;
19364;SDS011;9818;48.382;10.850;2023-04-08T01:02:48;2.87;;;2.50;;
19364;SDS011;9818;48.382;10.850;2023-04-08T01:05:23;3.57;;;2.60;;
19364;SDS011;9818;48.382;10.850;2023-04-08T01:07:59;3.10;;;2.80;;
19364;SDS011;9818;48.382;10.850;2023-04-08T01:10:32;3.23;;;2.93;;
19364;SDS011;9818;48.382;10.850;2023-04-08T01:13:03;2.90;;;2.60;;
19364;SDS011;9818;48.382;10.850;2023-04-08T01:15:35;4.13;;;2.90;;
19364;SDS011;9818;48.382;10.850;2023-04-08T01:18:09;3.37;;;3.00;;
19364;SDS011;9818;48.382;10.850;2023-04-08T01:20:40;3.77;;;2.83;;
19364;SDS011;9818;48.382;10.850;2023-04-08T01:23:12;2.93;;;2.63;;
19364;SDS011;9818;48.382;10.850;2023-04-08T01:25:50;3.17;;;2.87;;
19364;SDS011;9818;48.382;10.850;2023-04-08T01:28:20;3.03;;;2.73;;
19364;SDS011;9818;48.382;10.850;2023-04-08T01:30:51;2.90;;;2.70;;
19364;SDS011;9818;48.382;10.850;2023-04-08T01:33:24;3.10;;;2.80;;
19364;SDS011;9818;48.382;10.850;2023-04-08T01:35:55;3.17;;;2.70;;
19364;SDS011;9818;48.382;10.850;2023-04-08T01:38:25;3.27;;;2.90;;
19364;SDS011;9818;48.382;10.850;2023-04-08T01:40:57;3.20;;;2.90;;
19364;SDS011;9818;48.382;10.850;2023-04-08T01:43:26;3.07;;;2.63;;
19364;SDS011;9818;48.382;10.850;2023-04-08T01:45:56;2.97;;;2.60;;
19364;SDS011;9818;48.382;10.850;2023-04-08T01:48:26;2.80;;;2.43;;
19364;SDS011;9818;48.382;10.850;2023-04-08T01:50:56;3.10;;;2.80;;
19364;SDS011;9818;48.382;10.850;2023-04-08T01:53:26;2.70;;;2.50;;
19364;SDS011;9818;48.382;10.850;2023-04-08T01:56:01;3.87;;;2.90;;
19364;SDS011;9818;48.382;10.850;2023-04-08T01:58:35;4.17;;;3.10;;
19364;SDS011;9818;48.382;10.850;2023-04-08T02:01:11;2.80;;;2.50;;
19364;SDS011;9818;48.382;10.850;2023-04-08T02:03:44;3.17;;;2.87;;
19364;SDS011;9818;48.382;10.850;2023-04-08T02:06:16;3.23;;;2.60;;
19364;SDS011;9818;48.382;10.850;2023-04-08T02:08:44;3.10;;;2.80;;
19364;SDS011;9818;48.382;10.850;2023-04-08T02:11:16;3.17;;;2.90;;
19364;SDS011;9818;48.382;10.850;2023-04-08T02:13:45;3.10;;;2.80;;
19364;SDS011;9818;48.382;10.850;2023-04-08T02:16:14;3.13;;;2.83;;
19364;SDS011;9818;48.382;10.850;2023-04-08T02:18:49;3.40;;;2.70;;
19364;SDS011;9818;48.382;10.850;2023-04-08T02:21:27;3.40;;;3.10;;
19364;SDS011;9818;48.382;10.850;2023-04-08T02:24:01;3.23;;;2.97;;
19364;SDS011;9818;48.382;10.850;2023-04-08T02:26:37;3.17;;;2.87;;
19364;SDS011;9818;48.382;10.850;2023-04-08T02:29:08;3.07;;;2.87;;
19364;SDS011;9818;48.382;10.850;2023-04-08T02:31:40;3.50;;;3.20;;
19364;SDS011;9818;48.382;10.850;2023-04-08T02:34:10;3.00;;;2.70;;
19364;SDS011;9818;48.382;10.850;2023-04-08T02:36:41;3.40;;;3.10;;
19364;SDS011;9818;48.382;10.850;2023-04-08T02:39:11;2.90;;;2.70;;
19364;SDS011;9818;48.382;10.850;2023-04-08T02:41:42;3.70;;;2.90;;
19364;SDS011;9818;48.382;10.850;2023-04-08T02:44:11;2.90;;;2.70;;
19364;SDS011;9818;48.382;10.850;2023-04-08T02:46:40;3.23;;;2.70;;
19364;SDS011;9818;48.382;10.850;2023-04-08T02:49:08;3.00;;;2.70;;
19364;SDS011;9818;48.382;10.850;2023-04-08T02:51:37;3.27;;;2.97;;
19364;SDS011;9818;48.382;10.850;2023-04-08T02:54:06;4.07;;;3.10;;
19364;SDS011;9818;48.382;10.850;2023-04-08T02:56:35;3.47;;;3.10;;
19364;SDS011;9818;48.382;10.850;2023-04-08T02:59:06;3.23;;;2.93;;
19364;SDS011;9818;48.382;10.850;2023-04-08T03:01:34;3.47;;;3.17;;
19364;SDS011;9818;48.382;10.850;2023-04-08T03:04:03;3.57;;;3.10;;
19364;SDS011;9818;48.382;10.850;2023-04-08T03:06:32;3.67;;;2.93;;
19364;SDS011;9818;48.382;10.850;2023-04-08T03:09:01;3.10;;;2.73;;
19364;SDS011;9818;48.382;10.850;2023-04-08T03:11:30;3.27;;;2.97;;
19364;SDS011;9818;48.382;10.850;2023-04-08T03:13:58;3.50;;;3.20;;
19364;SDS011;9818;48.382;10.850;2023-04-08T03:16:29;3.23;;;2.93;;
19364;SDS011;9818;48.382;10.850;2023-04-08T03:18:58;3.37;;;3.07;;
19364;SDS011;9818;48.382;10.850;2023-04-08T03:21:27;2.90;;;2.70;;
19364;SDS011;9818;48.382;10.850;2023-04-08T03:23:55;3.23;;;2.93;;
19364;SDS011;9818;48.382;10.850;2023-04-08T03:26:24;3.50;;;3.20;;
19364;SDS011;9818;48.382;10.850;2023-04-08T03:28:53;3.37;;;3.07;;
19364;SDS011;9818;48.382;10.850;2023-04-08T03:31:22;3.53;;;3.20;;
19364;SDS011;9818;48.382;10.850;2023-04-08T03:33:53;4.50;;;3.53;;
19364;SDS011;9818;48.382;10.850;2023-04-08T03:36:21;3.20;;;2.90;;
19364;SDS011;9818;48.382;10.850;2023-04-08T03:38:50;3.63;;;3.33;;
19364;SDS011;9818;48.382;10.850;2023-04-08T03:41:19;3.73;;;3.33;;
19364;SDS011;9818;48.382;10.850;2023-04-08T03:43:48;3.50;;;3.10;;
19364;SDS011;9818;48.382;10.850;2023-04-08T03:46:16;3.60;;;3.30;;
19364;SDS011;9818;48.382;10.850;2023-04-08T03:48:46;3.63;;;3.30;;
19364;SDS011;9818;48.382;10.850;2023-04-08T03:51:17;3.53;;;3.23;;
19364;SDS011;9818;48.382;10.850;2023-04-08T03:53:46;4.03;;;3.63;;
19364;SDS011;9818;48.382;10.850;2023-04-08T03:56:15;3.50;;;3.20;;
19364;SDS011;9818;48.382;10.850;2023-04-08T03:58:43;3.73;;;3.20;;
19364;SDS011;9818;48.382;10.850;2023-04-08T04:01:12;4.27;;;3.60;;
19364;SDS011;9818;48.382;10.850;2023-04-08T04:03:40;4.03;;;3.63;;
19364;SDS011;9818;48.382;10.850;2023-04-08T04:06:09;4.00;;;3.60;;
19364;SDS011;9818;48.382;10.850;2023-04-08T04:08:40;3.40;;;3.07;;
19364;SDS011;9818;48.382;10.850;2023-04-08T04:11:09;3.47;;;3.17;;
19364;SDS011;9818;48.382;10.850;2023-04-08T04:13:38;3.50;;;3.20;;
19364;SDS011;9818;48.382;10.850;2023-04-08T04:16:06;3.50;;;3.20;;
19364;SDS011;9818;48.382;10.850;2023-04-08T04:18:35;3.80;;;3.40;;
19364;SDS011;9818;48.382;10.850;2023-04-08T04:21:04;3.83;;;3.50;;
19364;SDS011;9818;48.382;10.850;2023-04-08T04:23:33;3.93;;;3.53;;
19364;SDS011;9818;48.382;10.850;2023-04-08T04:26:09;3.50;;;3.20;;
19364;SDS011;9818;48.382;10.850;2023-04-08T04:28:38;3.60;;;3.30;;
19364;SDS011;9818;48.382;10.850;2023-04-08T04:31:07;3.97;;;3.67;;
19364;SDS011;9818;48.382;10.850;2023-04-08T04:33:35;3.90;;;3.60;;
19364;SDS011;9818;48.382;10.850;2023-04-08T04:36:04;4.67;;;3.43;;
19364;SDS011;9818;48.382;10.850;2023-04-08T04:38:33;4.20;;;3.80;;
19364;SDS011;9818;48.382;10.850;2023-04-08T04:41:03;4.40;;;4.00;;
19364;SDS011;9818;48.382;10.850;2023-04-08T04:43:34;4.03;;;3.63;;
19364;SDS011;9818;48.382;10.850;2023-04-08T04:46:02;4.13;;;3.50;;
19364;SDS011;9818;48.382;10.850;2023-04-08T04:48:33;4.70;;;3.73;;
19364;SDS011;9818;48.382;10.850;2023-04-08T04:51:01;3.97;;;3.60;;
19364;SDS011;9818;48.382;10.850;2023-04-08T04:53:31;3.50;;;3.20;;
19364;SDS011;9818;48.382;10.850;2023-04-08T04:56:00;4.47;;;3.87;;
19364;SDS011;9818;48.382;10.850;2023-04-08T04:58:29;3.87;;;3.57;;
19364;SDS011;9818;48.382;10.850;2023-04-08T05:01:00;3.50;;;3.20;;
19364;SDS011;9818;48.382;10.850;2023-04-08T05:03:29;4.83;;;3.70;;
19364;SDS011;9818;48.382;10.850;2023-04-08T05:05:58;4.97;;;4.20;;
19364;SDS011;9818;48.382;10.850;2023-04-08T05:08:27;4.27;;;3.87;;
19364;SDS011;9818;48.382;10.850;2023-04-08T05:10:55;4.27;;;3.43;;
19364;SDS011;9818;48.382;10.850;2023-04-08T05:13:26;3.93;;;3.57;;
19364;SDS011;9818;48.382;10.850;2023-04-08T05:15:55;4.23;;;3.83;;
19364;SDS011;9818;48.382;10.850;2023-04-08T05:18:26;3.63;;;3.30;;
19364;SDS011;9818;48.382;10.850;2023-04-08T05:20:55;3.70;;;3.40;;
19364;SDS011;9818;48.382;10.850;2023-04-08T05:23:23;4.33;;;3.93;;
19364;SDS011;9818;48.382;10.850;2023-04-08T05:25:52;4.30;;;3.90;;
19364;SDS011;9818;48.382;10.850;2023-04-08T05:28:21;4.20;;;3.80;;
19364;SDS011;9818;48.382;10.850;2023-04-08T05:30:50;4.33;;;3.93;;
19364;SDS011;9818;48.382;10.850;2023-04-08T05:33:19;4.40;;;3.93;;
19364;SDS011;9818;48.382;10.850;2023-04-08T05:35:51;4.60;;;4.07;;
19364;SDS011;9818;48.382;10.850;2023-04-08T05:38:19;4.40;;;3.40;;
19364;SDS011;9818;48.382;10.850;2023-04-08T05:40:48;4.80;;;3.90;;
19364;SDS011;9818;48.382;10.850;2023-04-08T05:43:17;4.97;;;4.20;;
19364;SDS011;9818;48.382;10.850;2023-04-08T05:45:45;4.63;;;4.20;;
19364;SDS011;9818;48.382;10.850;2023-04-08T05:48:14;4.33;;;3.87;;
19364;SDS011;9818;48.382;10.850;2023-04-08T05:50:43;4.10;;;3.70;;
19364;SDS011;9818;48.382;10.850;2023-04-08T05:53:15;5.07;;;4.33;;
19364;SDS011;9818;48.382;10.850;2023-04-08T05:55:43;5.00;;;4.10;;
19364;SDS011;9818;48.382;10.850;2023-04-08T05:58:12;4.23;;;3.83;;
19364;SDS011;9818;48.382;10.850;2023-04-08T06:00:41;4.37;;;3.97;;
19364;SDS011;9818;48.382;10.850;2023-04-08T06:03:10;4.57;;;4.17;;
19364;SDS011;9818;48.382;10.850;2023-04-08T06:05:38;4.33;;;3.80;;
19364;SDS011;9818;48.382;10.850;2023-04-08T06:08:07;4.20;;;3.80;;
19364;SDS011;9818;48.382;10.850;2023-04-08T06:10:38;5.23;;;4.33;;
19364;SDS011;9818;48.382;10.850;2023-04-08T06:13:07;4.80;;;4.30;;
19364;SDS011;9818;48.382;10.850;2023-04-08T06:15:35;4.43;;;4.03;;
19364;SDS011;9818;48.382;10.850;2023-04-08T06:18:04;4.90;;;4.50;;
19364;SDS011;9818;48.382;10.850;2023-04-08T06:20:34;4.63;;;4.10;;
19364;SDS011;9818;48.382;10.850;2023-04-08T06:23:02;4.27;;;3.87;;
19364;SDS011;9818;48.382;10.850;2023-04-08T06:25:31;4.37;;;3.97;;
19364;SDS011;9818;48.382;10.850;2023-04-08T06:28:02;4.60;;;4.20;;
19364;SDS011;9818;48.382;10.850;2023-04-08T06:30:31;4.27;;;3.87;;
19364;SDS011;9818;48.382;10.850;2023-04-08T06:32:59;4.53;;;4.13;;
19364;SDS011;9818;48.382;10.850;2023-04-08T06:35:28;4.07;;;3.67;;
19364;SDS011;9818;48.382;10.850;2023-04-08T06:37:57;5.10;;;4.60;;
19364;SDS011;9818;48.382;10.850;2023-04-08T06:40:25;4.60;;;4.20;;
19364;SDS011;9818;48.382;10.850;2023-04-08T06:42:54;4.23;;;3.90;;
19364;SDS011;9818;48.382;10.850;2023-04-08T06:45:25;4.37;;;3.97;;
19364;SDS011;9818;48.382;10.850;2023-04-08T06:47:54;5.00;;;4.50;;
19364;SDS011;9818;48.382;10.850;2023-04-08T06:50:23;4.40;;;4.00;;
19364;SDS011;9818;48.382;10.850;2023-04-08T06:52:51;4.37;;;3.97;;
19364;SDS011;9818;48.382;10.850;2023-04-08T06:55:20;4.57;;;4.17;;
19364;SDS011;9818;48.382;10.850;2023-04-08T06:57:49;4.23;;;3.70;;
19364;SDS011;9818;48.382;10.850;2023-04-08T07:00:17;4.67;;;4.27;;
19364;SDS011;9818;48.382;10.850;2023-04-08T07:02:49;4.63;;;4.20;;
19364;SDS011;9818;48.382;10.850;2023-04-08T07:05:17;4.47;;;4.03;;
19364;SDS011;9818;48.382;10.850;2023-04-08T07:07:46;4.57;;;4.17;;
19364;SDS011;9818;48.382;10.850;2023-04-08T07:10:15;5.40;;;4.60;;
19364;SDS011;9818;48.382;10.850;2023-04-08T07:12:43;5.03;;;4.57;;
19364;SDS011;9818;48.382;10.850;2023-04-08T07:15:12;5.17;;;4.57;;
19364;SDS011;9818;48.382;10.850;2023-04-08T07:17:41;5.10;;;4.60;;
19364;SDS011;9818;48.382;10.850;2023-04-08T07:20:13;6.23;;;4.37;;
19364;SDS011;9818;48.382;10.850;2023-04-08T07:22:42;5.83;;;4.03;;
19364;SDS011;9818;48.382;10.850;2023-04-08T07:25:11;5.00;;;4.50;;
19364;SDS011;9818;48.382;10.850;2023-04-08T07:27:39;4.97;;;4.47;;
19364;SDS011;9818;48.382;10.850;2023-04-08T07:30:08;4.50;;;3.93;;
19364;SDS011;9818;48.382;10.850;2023-04-08T07:32:37;4.73;;;4.23;;
19364;SDS011;9818;48.382;10.850;2023-04-08T07:35:06;4.43;;;4.03;;
19364;SDS011;9818;48.382;10.850;2023-04-08T07:37:37;4.87;;;4.47;;
19364;SDS011;9818;48.382;10.850;2023-04-08T07:40:07;4.60;;;4.00;;
19364;SDS011;9818;48.382;10.850;2023-04-08T07:42:36;5.10;;;4.60;;
19364;SDS011;9818;48.382;10.850;2023-04-08T07:45:06;5.30;;;4.80;;
19364;SDS011;9818;48.382;10.850;2023-04-08T07:47:35;5.13;;;4.63;;
19364;SDS011;9818;48.382;10.850;2023-04-08T07:50:05;4.57;;;4.10;;
19364;SDS011;9818;48.382;10.850;2023-04-08T07:52:34;4.70;;;4.20;;
19364;SDS011;9818;48.382;10.850;2023-04-08T07:55:06;5.60;;;4.97;;
19364;SDS011;9818;48.382;10.850;2023-04-08T07:57:35;6.27;;;5.10;;
19364;SDS011;9818;48.382;10.850;2023-04-08T08:00:04;4.83;;;4.43;;
19364;SDS011;9818;48.382;10.850;2023-04-08T08:02:35;5.27;;;4.60;;
19364;SDS011;9818;48.382;10.850;2023-04-08T08:05:04;5.93;;;4.47;;
19364;SDS011;9818;48.382;10.850;2023-04-08T08:07:33;5.13;;;4.60;;
19364;SDS011;9818;48.382;10.850;2023-04-08T08:10:05;5.07;;;4.57;;
19364;SDS011;9818;48.382;10.850;2023-04-08T08:12:35;6.43;;;4.90;;
19364;SDS011;9818;48.382;10.850;2023-04-08T08:15:04;5.00;;;4.50;;
19364;SDS011;9818;48.382;10.850;2023-04-08T08:17:33;5.50;;;4.60;;
19364;SDS011;9818;48.382;10.850;2023-04-08T08:20:02;5.20;;;4.57;;
19364;SDS011;9818;48.382;10.850;2023-04-08T08:22:31;5.87;;;5.07;;
19364;SDS011;9818;48.382;10.850;2023-04-08T08:24:59;5.23;;;4.73;;
19364;SDS011;9818;48.382;10.850;2023-04-08T08:27:31;5.40;;;4.90;;
19364;SDS011;9818;48.382;10.850;2023-04-08T08:30:00;5.20;;;4.70;;
19364;SDS011;9818;48.382;10.850;2023-04-08T08:32:29;5.10;;;4.60;;
19364;SDS011;9818;48.382;10.850;2023-04-08T08:34:58;5.87;;;5.00;;
19364;SDS011;9818;48.382;10.850;2023-04-08T08:37:27;5.03;;;4.53;;
19364;SDS011;9818;48.382;10.850;2023-04-08T08:39:56;5.70;;;5.10;;
19364;SDS011;9818;48.382;10.850;2023-04-08T08:42:25;5.37;;;4.67;;
19364;SDS011;9818;48.382;10.850;2023-04-08T08:44:56;6.00;;;5.17;;
19364;SDS011;9818;48.382;10.850;2023-04-08T08:47:25;6.00;;;4.70;;
19364;SDS011;9818;48.382;10.850;2023-04-08T08:49:53;5.63;;;4.43;;
19364;SDS011;9818;48.382;10.850;2023-04-08T08:52:22;5.70;;;5.07;;
19364;SDS011;9818;48.382;10.850;2023-04-08T08:54:56;6.03;;;5.10;;
19364;SDS011;9818;48.382;10.850;2023-04-08T08:57:25;5.50;;;5.00;;
19364;SDS011;9818;48.382;10.850;2023-04-08T08:59:56;5.23;;;4.57;;
19364;SDS011;9818;48.382;10.850;2023-04-08T09:02:25;5.83;;;5.10;;
19364;SDS011;9818;48.382;10.850;2023-04-08T09:04:58;5.33;;;4.83;;
19364;SDS011;9818;48.382;10.850;2023-04-08T09:07:28;5.63;;;5.10;;
19364;SDS011;9818;48.382;10.850;2023-04-08T09:09:57;5.20;;;4.70;;
19364;SDS011;9818;48.382;10.850;2023-04-08T09:12:26;5.77;;;5.13;;
19364;SDS011;9818;48.382;10.850;2023-04-08T09:15:05;6.10;;;5.50;;
19364;SDS011;9818;48.382;10.850;2023-04-08T09:17:35;5.33;;;4.80;;
19364;SDS011;9818;48.382;10.850;2023-04-08T09:20:06;5.67;;;5.10;;
19364;SDS011;9818;48.382;10.850;2023-04-08T09:22:53;5.40;;;4.63;;
19364;SDS011;9818;48.382;10.850;2023-04-08T09:25:24;6.23;;;5.50;;
19364;SDS011;9818;48.382;10.850;2023-04-08T09:27:53;5.73;;;5.07;;
19364;SDS011;9818;48.382;10.850;2023-04-08T09:30:25;6.03;;;5.43;;
19364;SDS011;9818;48.382;10.850;2023-04-08T09:32:54;6.23;;;5.63;;
19364;SDS011;9818;48.382;10.850;2023-04-08T09:35:25;6.27;;;5.33;;
19364;SDS011;9818;48.382;10.850;2023-04-08T09:37:54;6.13;;;5.53;;
19364;SDS011;9818;48.382;10.850;2023-04-08T09:40:22;5.53;;;4.83;;
19364;SDS011;9818;48.382;10.850;2023-04-08T09:42:54;6.03;;;5.37;;
19364;SDS011;9818;48.382;10.850;2023-04-08T09:45:28;5.97;;;5.10;;
19364;SDS011;9818;48.382;10.850;2023-04-08T09:48:00;6.37;;;5.43;;
19364;SDS011;9818;48.382;10.850;2023-04-08T09:50:40;6.63;;;5.30;;
19364;SDS011;9818;48.382;10.850;2023-04-08T09:53:24;5.90;;;5.10;;
19364;SDS011;9818;48.382;10.850;2023-04-08T09:55:59;7.77;;;5.13;;
19364;SDS011;9818;48.382;10.850;2023-04-08T09:58:32;6.10;;;5.07;;
19364;SDS011;9818;48.382;10.850;2023-04-08T10:01:08;5.53;;;5.03;;
19364;SDS011;9818;48.382;10.850;2023-04-08T10:03:44;5.80;;;5.13;;
19364;SDS011;9818;48.382;10.850;2023-04-08T10:06:16;6.17;;;5.57;;
19364;SDS011;9818;48.382;10.850;2023-04-08T10:08:45;5.97;;;5.37;;
19364;SDS011;9818;48.382;10.850;2023-04-08T10:11:14;5.77;;;5.17;;
19364;SDS011;9818;48.382;10.850;2023-04-08T10:13:43;5.83;;;5.07;;
19364;SDS011;9818;48.382;10.850;2023-04-08T10:16:22;6.40;;;5.80;;
19364;SDS011;9818;48.382;10.850;2023-04-08T10:18:52;6.03;;;5.43;;
19364;SDS011;9818;48.382;10.850;2023-04-08T10:21:32;5.47;;;4.97;;
19364;SDS011;9818;48.382;10.850;2023-04-08T10:24:01;6.33;;;5.20;;
19364;SDS011;9818;48.382;10.850;2023-04-08T10:26:34;6.10;;;5.50;;
19364;SDS011;9818;48.382;10.850;2023-04-08T10:32:11;5.43;;;4.90;;
19364;SDS011;9818;48.382;10.850;2023-04-08T10:34:55;7.60;;;5.40;;
19364;SDS011;9818;48.382;10.850;2023-04-08T10:37:24;5.50;;;5.00;;
19364;SDS011;9818;48.382;10.850;2023-04-08T10:39:53;6.70;;;5.47;;
19364;SDS011;9818;48.382;10.850;2023-04-08T10:42:26;5.83;;;5.20;;
19364;SDS011;9818;48.382;10.850;2023-04-08T10:44:58;6.67;;;5.30;;
19364;SDS011;9818;48.382;10.850;2023-04-08T10:47:31;5.73;;;5.13;;
19364;SDS011;9818;48.382;10.850;2023-04-08T10:50:00;6.80;;;5.70;;
19364;SDS011;9818;48.382;10.850;2023-04-08T10:52:28;6.60;;;5.30;;
19364;SDS011;9818;48.382;10.850;2023-04-08T10:54:57;6.37;;;5.73;;
19364;SDS011;9818;48.382;10.850;2023-04-08T10:57:26;6.30;;;5.53;;
19364;SDS011;9818;48.382;10.850;2023-04-08T10:59:54;6.63;;;5.40;;
19364;SDS011;9818;48.382;10.850;2023-04-08T11:02:33;6.50;;;5.20;;
19364;SDS011;9818;48.382;10.850;2023-04-08T11:05:05;6.23;;;5.63;;
19364;SDS011;9818;48.382;10.850;2023-04-08T11:07:38;5.80;;;5.20;;
19364;SDS011;9818;48.382;10.850;2023-04-08T11:10:08;6.30;;;5.70;;
19364;SDS011;9818;48.382;10.850;2023-04-08T11:12:37;6.20;;;5.60;;
19364;SDS011;9818;48.382;10.850;2023-04-08T11:15:07;6.00;;;5.40;;
19364;SDS011;9818;48.382;10.850;2023-04-08T11:17:39;6.60;;;5.90;;
19364;SDS011;9818;48.382;10.850;2023-04-08T11:20:09;9.93;;;6.23;;
19364;SDS011;9818;48.382;10.850;2023-04-08T11:22:38;7.73;;;5.80;;
19364;SDS011;9818;48.382;10.850;2023-04-08T11:25:08;7.97;;;5.47;;
19364;SDS011;9818;48.382;10.850;2023-04-08T11:27:37;7.53;;;5.30;;
19364;SDS011;9818;48.382;10.850;2023-04-08T11:30:07;6.37;;;5.37;;
19364;SDS011;9818;48.382;10.850;2023-04-08T11:32:39;7.10;;;6.10;;
19364;SDS011;9818;48.382;10.850;2023-04-08T11:35:08;6.77;;;5.57;;
19364;SDS011;9818;48.382;10.850;2023-04-08T11:37:37;8.83;;;5.43;;
19364;SDS011;9818;48.382;10.850;2023-04-08T11:40:09;6.70;;;5.87;;
19364;SDS011;9818;48.382;10.850;2023-04-08T11:42:38;6.70;;;6.00;;
19364;SDS011;9818;48.382;10.850;2023-04-08T11:45:10;7.23;;;5.53;;
19364;SDS011;9818;48.382;10.850;2023-04-08T11:47:42;8.03;;;6.53;;
19364;SDS011;9818;48.382;10.850;2023-04-08T11:50:11;6.90;;;5.90;;
19364;SDS011;9818;48.382;10.850;2023-04-08T11:52:41;8.67;;;6.33;;
19364;SDS011;9818;48.382;10.850;2023-04-08T11:55:11;6.70;;;6.00;;
19364;SDS011;9818;48.382;10.850;2023-04-08T11:57:49;6.77;;;5.50;;
19364;SDS011;9818;48.382;10.850;2023-04-08T12:00:18;8.07;;;6.10;;
19364;SDS011;9818;48.382;10.850;2023-04-08T12:02:50;6.73;;;6.00;;
19364;SDS011;9818;48.382;10.850;2023-04-08T12:05:19;7.80;;;5.97;;
19364;SDS011;9818;48.382;10.850;2023-04-08T12:07:47;7.20;;;6.00;;
19364;SDS011;9818;48.382;10.850;2023-04-08T12:10:16;7.07;;;5.90;;
19364;SDS011;9818;48.382;10.850;2023-04-08T12:12:45;6.97;;;6.00;;
19364;SDS011;9818;48.382;10.850;2023-04-08T12:15:13;6.70;;;5.90;;
19364;SDS011;9818;48.382;10.850;2023-04-08T12:17:42;7.83;;;6.63;;
19364;SDS011;9818;48.382;10.850;2023-04-08T12:20:13;6.43;;;5.80;;
19364;SDS011;9818;48.382;10.850;2023-04-08T12:22:42;6.80;;;6.10;;
19364;SDS011;9818;48.382;10.850;2023-04-08T12:25:11;6.37;;;5.77;;
19364;SDS011;9818;48.382;10.850;2023-04-08T12:27:40;6.53;;;5.70;;
19364;SDS011;9818;48.382;10.850;2023-04-08T12:30:09;7.43;;;6.30;;
19364;SDS011;9818;48.382;10.850;2023-04-08T12:32:38;6.80;;;5.90;;
19364;SDS011;9818;48.382;10.850;2023-04-08T12:35:09;6.17;;;5.53;;
19364;SDS011;9818;48.382;10.850;2023-04-08T12:37:41;6.97;;;5.93;;
19364;SDS011;9818;48.382;10.850;2023-04-08T12:40:11;6.87;;;5.87;;
19364;SDS011;9818;48.382;10.850;2023-04-08T12:42:39;6.20;;;5.60;;
19364;SDS011;9818;48.382;10.850;2023-04-08T12:45:08;6.63;;;5.97;;
19364;SDS011;9818;48.382;10.850;2023-04-08T12:47:37;6.60;;;5.90;;
19364;SDS011;9818;48.382;10.850;2023-04-08T12:50:06;6.90;;;5.70;;
19364;SDS011;9818;48.382;10.850;2023-04-08T12:52:35;6.73;;;5.97;;
19364;SDS011;9818;48.382;10.850;2023-04-08T12:55:07;6.63;;;5.97;;
19364;SDS011;9818;48.382;10.850;2023-04-08T12:57:37;6.73;;;6.03;;
19364;SDS011;9818;48.382;10.850;2023-04-08T13:00:06;6.60;;;5.70;;
19364;SDS011;9818;48.382;10.850;2023-04-08T13:02:36;6.97;;;6.10;;
19364;SDS011;9818;48.382;10.850;2023-04-08T13:05:06;6.60;;;5.43;;
19364;SDS011;9818;48.382;10.850;2023-04-08T13:07:35;6.43;;;5.83;;
19364;SDS011;9818;48.382;10.850;2023-04-08T13:10:04;7.90;;;6.40;;
19364;SDS011;9818;48.382;10.850;2023-04-08T13:12:36;6.17;;;5.57;;
19364;SDS011;9818;48.382;10.850;2023-04-08T13:15:06;6.00;;;5.40;;
19364;SDS011;9818;48.382;10.850;2023-04-08T13:17:35;6.43;;;5.80;;
19364;SDS011;9818;48.382;10.850;2023-04-08T13:20:05;6.10;;;5.50;;
19364;SDS011;9818;48.382;10.850;2023-04-08T13:22:35;6.10;;;5.37;;
19364;SDS011;9818;48.382;10.850;2023-04-08T13:25:08;6.37;;;5.67;;
19364;SDS011;9818;48.382;10.850;2023-04-08T13:27:37;7.23;;;5.77;;
19364;SDS011;9818;48.382;10.850;2023-04-08T13:30:06;5.63;;;5.00;;
19364;SDS011;9818;48.382;10.850;2023-04-08T13:32:35;5.60;;;5.10;;
19364;SDS011;9818;48.382;10.850;2023-04-08T13:35:04;6.07;;;5.27;;
19364;SDS011;9818;48.382;10.850;2023-04-08T13:37:33;5.37;;;4.87;;
19364;SDS011;9818;48.382;10.850;2023-04-08T13:40:02;6.03;;;5.07;;
19364;SDS011;9818;48.382;10.850;2023-04-08T13:42:35;6.13;;;5.53;;
19364;SDS011;9818;48.382;10.850;2023-04-08T13:45:04;5.87;;;5.27;;
19364;SDS011;9818;48.382;10.850;2023-04-08T13:47:33;5.80;;;5.27;;
19364;SDS011;9818;48.382;10.850;2023-04-08T13:50:06;6.30;;;5.70;;
19364;SDS011;9818;48.382;10.850;2023-04-08T13:52:35;5.77;;;5.17;;
19364;SDS011;9818;48.382;10.850;2023-04-08T13:55:04;6.27;;;5.60;;
19364;SDS011;9818;48.382;10.850;2023-04-08T13:57:36;5.80;;;5.20;;
19364;SDS011;9818;48.382;10.850;2023-04-08T14:00:05;4.97;;;4.47;;
19364;SDS011;9818;48.382;10.850;2023-04-08T14:02:35;5.27;;;4.77;;
19364;SDS011;9818;48.382;10.850;2023-04-08T14:05:04;5.43;;;4.73;;
19364;SDS011;9818;48.382;10.850;2023-04-08T14:07:33;5.50;;;5.00;;
19364;SDS011;9818;48.382;10.850;2023-04-08T14:10:02;6.00;;;5.37;;
19364;SDS011;9818;48.382;10.850;2023-04-08T14:12:32;6.07;;;4.70;;
19364;SDS011;9818;48.382;10.850;2023-04-08T14:15:03;5.20;;;4.70;;
19364;SDS011;9818;48.382;10.850;2023-04-08T14:17:33;5.10;;;4.60;;
19364;SDS011;9818;48.382;10.850;2023-04-08T14:20:02;5.67;;;5.07;;
19364;SDS011;9818;48.382;10.850;2023-04-08T14:22:32;5.13;;;4.63;;
19364;SDS011;9818;48.382;10.850;2023-04-08T14:25:00;4.73;;;4.33;;
19364;SDS011;9818;48.382;10.850;2023-04-08T14:27:30;5.27;;;4.77;;
19364;SDS011;9818;48.382;10.850;2023-04-08T14:29:58;5.97;;;4.73;;
19364;SDS011;9818;48.382;10.850;2023-04-08T14:32:30;5.17;;;4.67;;
19364;SDS011;9818;48.382;10.850;2023-04-08T14:34:58;5.30;;;4.80;;
19364;SDS011;9818;48.382;10.850;2023-04-08T14:37:27;5.33;;;4.83;;
19364;SDS011;9818;48.382;10.850;2023-04-08T14:39:57;5.47;;;4.97;;
19364;SDS011;9818;48.382;10.850;2023-04-08T14:42:26;4.97;;;4.40;;
19364;SDS011;9818;48.382;10.850;2023-04-08T14:44:54;5.00;;;4.50;;
19364;SDS011;9818;48.382;10.850;2023-04-08T14:47:24;5.40;;;4.90;;
19364;SDS011;9818;48.382;10.850;2023-04-08T14:49:55;5.10;;;4.63;;
19364;SDS011;9818;48.382;10.850;2023-04-08T14:52:24;4.63;;;4.23;;
19364;SDS011;9818;48.382;10.850;2023-04-08T14:54:52;5.63;;;4.43;;
19364;SDS011;9818;48.382;10.850;2023-04-08T14:57:21;5.07;;;4.60;;
19364;SDS011;9818;48.382;10.850;2023-04-08T14:59:49;5.20;;;4.70;;
19364;SDS011;9818;48.382;10.850;2023-04-08T15:02:18;4.63;;;4.23;;
19364;SDS011;9818;48.382;10.850;2023-04-08T15:04:47;5.30;;;4.80;;
19364;SDS011;9818;48.382;10.850;2023-04-08T15:07:18;4.53;;;4.13;;